Observations for VALLEY RAF, United Kingdom (EGOV)

EGOV 201950Z AUTO 18021KT 4400 BR OVC003/// 09/09 Q1014 RERA
EGOV 201850Z AUTO 18022KT 7000 BR OVC003/// 09/09 Q1014 RERA
EGOV 201750Z 18021KT 3000 -DZ OVC003 09/09 Q1014 YLO2   
EGOV 201650Z 18022KT 2500 -DZ OVC002 09/09 Q1013 AMB TEMPO 1500 DZ AMB  
EGOV 201636Z 18023KT 2000 -DZ OVC002 09/09 Q1013 AMB TEMPO 1500 DZ AMB  
EGOV 201636Z 18023KT 2000 -DZ OVC002 09/09 Q1013 AMB TEMPO 1500 DZ AMB
EGOV 201550Z 18024KT 5000 -DZ FEW002 OVC004 09/09 Q1013 YLO2 TEMPO 2000 DZ OVC002 AMB   
EGOV 201532Z 18023KT 2500 -DZ OVC002 09/09 Q1013 AMB TEMPO 2000 DZ AMB  
EGOV 201532Z 18023KT 2500 -DZ OVC002 09/09 Q1013 AMB TEMPO 2000 DZ AMB
EGOV 201450Z 18023KT 2500 -DZ OVC003 09/09 Q1013 YLO2 TEMPO 1500 DZ OVC002 AMB  
EGOV 201350Z 18023KT 4500 -DZ BKN004 OVC006 09/09 Q1013 RERA REDZ YLO2 TEMPO 2000 DZ BKN002 AMB 
EGOV 201333Z 18024KT 4000 -DZ BKN005 09/09 Q1013 YLO1 BECMG BKN003 YLO2 
EGOV 201333Z 18024KT 4000 -DZ BKN005 09/09 Q1013 YLO1 BECMG BKN003 YLO2
EGOV 201250Z 18025KT 4000 3500W RADZ FEW006 OVC008 09/09 Q1013 REDZ YLO1 TEMPO 2000 DZ SCT004 YLO2  
EGOV 201239Z 18025KT 4000 -DZ OVC008 10/08 Q1013 GRN TEMPO 2000 DZ SCT004 YLO2  
EGOV 201239Z 18025KT 4000 -DZ OVC008 10/08 Q1013 GRN TEMPO 2000 DZ SCT004 YLO2
EGOV 201150Z 18024KT 9000 7000W -RA BKN010 OVC030 10/09 Q1013 GRN TEMPO SCT006 YLO1 
EGOV 201050Z 18024KT 9999 -RA BKN010 OVC060 09/08 Q1012 RERA GRN TEMPO 6000 RADZ GRN
EGOV 200950Z 18026KT 9999 -RA OVC013 10/08 Q1012 GRN TEMPO 6000 RA GRN  
EGOV 200850Z 18025KT 9999 BKN013 OVC040 10/08 Q1012 GRN TEMPO BKN015 WHT
EGOV 200750Z 18024KT 9999 BKN013 OVC020 09/08 Q1011 GRN TEMPO FEW013 BKN020 WHT 
EGOV 200650Z 19026KT 9999 BKN013 OVC020 09/08 Q1011 GRN TEMPO FEW013 BKN020 WHT 
EGOV 200550Z AUTO 18025KT 8000 HZ OVC012/// 09/08 Q1011 
EGOV 200450Z AUTO 18025KT 9000 HZ OVC013/// 09/08 Q1011 
EGOV 200350Z AUTO 18023KT 9000 HZ OVC010/// 09/08 Q1011 
EGOV 200250Z AUTO 18025KT 8000 HZ OVC009/// 09/08 Q1011 RERA
EGOV 200150Z AUTO 19025KT 6000 BR OVC006/// 09/08 Q1011 RERA
EGOV 200050Z AUTO 19027KT 6000 -RA OVC006/// 09/08 Q1011
EGOV 192350Z AUTO 19028KT 5000 -RA OVC006/// 09/08 Q1011
EGOV 192250Z AUTO 19028KT 3600 -RA OVC006/// 08/08 Q1011
EGOV 192150Z AUTO 18027KT 4800 -RA BKN006/// 08/08 Q1011
EGOV 192050Z AUTO 19028KT 5000 -RA BKN008/// BKN015/// 08/08 Q1011  
EGOV 191950Z 18028KT 6000 RA BKN010 BKN018 08/08 Q1011 GRN